createdAt,value
2022-12-24T00:00:42.950Z,0
2022-12-24T00:01:23.305Z,0
2022-12-24T00:02:03.964Z,0
2022-12-24T00:02:44.492Z,0
2022-12-24T00:03:24.969Z,0
2022-12-24T00:04:05.516Z,0
2022-12-24T00:04:45.998Z,0
2022-12-24T00:05:27.462Z,0
2022-12-24T00:12:12.806Z,0
2022-12-24T00:12:53.324Z,0
2022-12-24T00:13:33.830Z,0
2022-12-24T00:14:14.360Z,0
2022-12-24T00:14:54.873Z,0
2022-12-24T00:15:35.421Z,0
2022-12-24T00:16:16.133Z,0
2022-12-24T00:16:56.507Z,0
2022-12-24T00:17:36.967Z,0
2022-12-24T00:18:17.486Z,0
2022-12-24T00:25:02.895Z,0
2022-12-24T00:25:43.480Z,0
2022-12-24T00:26:23.964Z,0
2022-12-24T00:27:04.547Z,0
2022-12-24T00:27:45.083Z,0
2022-12-24T00:28:25.630Z,0
2022-12-24T00:29:06.169Z,0
2022-12-24T00:29:46.685Z,0
2022-12-24T00:30:27.266Z,0
2022-12-24T00:31:07.785Z,0
2022-12-24T00:36:29.056Z,0
2022-12-24T00:37:09.571Z,0
2022-12-24T00:37:50.092Z,0
2022-12-24T00:38:30.705Z,0
2022-12-24T00:39:11.273Z,0
2022-12-24T00:41:26.481Z,0
2022-12-24T00:42:08.000Z,0
2022-12-24T00:42:49.350Z,0
2022-12-24T00:43:33.227Z,0
2022-12-24T00:45:31.707Z,0
2022-12-24T00:46:12.291Z,0
2022-12-24T00:46:52.737Z,0
2022-12-24T00:47:33.269Z,0
2022-12-24T00:48:13.775Z,0
2022-12-24T00:48:54.465Z,0
2022-12-24T00:49:35.020Z,0
2022-12-24T00:50:15.560Z,0
2022-12-24T00:50:56.171Z,0
2022-12-24T00:51:36.731Z,0
2022-12-24T00:58:48.552Z,0
2022-12-24T00:59:29.110Z,0
2022-12-24T01:00:09.643Z,0
2022-12-24T01:00:50.170Z,0
2022-12-24T01:01:30.759Z,0
2022-12-24T01:02:11.409Z,0
2022-12-24T01:02:51.901Z,0
2022-12-24T01:03:32.345Z,0
2022-12-24T01:04:12.809Z,0
2022-12-24T01:04:53.316Z,0
2022-12-24T01:08:58.234Z,0
2022-12-24T01:09:38.748Z,0
2022-12-24T01:10:19.310Z,0
2022-12-24T01:10:59.843Z,0
2022-12-24T01:11:40.539Z,0
2022-12-24T01:12:21.091Z,0
2022-12-24T01:13:01.674Z,0
2022-12-24T01:15:15.235Z,0
2022-12-24T01:15:55.861Z,0
2022-12-24T01:16:36.412Z,0
2022-12-24T01:17:16.958Z,0
2022-12-24T01:19:30.470Z,0
2022-12-24T01:20:11.049Z,0
2022-12-24T01:20:51.623Z,0
2022-12-24T01:21:32.171Z,0
2022-12-24T01:22:12.736Z,0
2022-12-24T01:22:53.294Z,0
2022-12-24T01:23:33.793Z,0
2022-12-24T01:24:14.327Z,0
2022-12-24T01:24:54.881Z,0
2022-12-24T01:25:35.433Z,0
2022-12-24T01:31:01.720Z,0
2022-12-24T01:31:42.187Z,0
2022-12-24T01:32:22.694Z,0
2022-12-24T01:33:03.290Z,0
2022-12-24T01:33:43.866Z,0
2022-12-24T01:34:24.391Z,0
2022-12-24T01:35:04.907Z,0
2022-12-24T01:35:45.436Z,0
2022-12-24T01:39:04.528Z,0
2022-12-24T01:39:45.075Z,0
2022-12-24T01:40:25.613Z,0
2022-12-24T01:41:06.170Z,0
2022-12-24T01:41:46.715Z,0
2022-12-24T01:42:27.255Z,0
2022-12-24T01:43:07.819Z,0
2022-12-24T01:45:20.573Z,0
2022-12-24T01:46:02.047Z,0
2022-12-24T01:46:42.538Z,0
2022-12-24T01:47:23.015Z,0
2022-12-24T01:48:04.134Z,0
2022-12-24T01:48:44.654Z,0
2022-12-24T01:51:15.150Z,0
2022-12-24T01:51:55.684Z,0
2022-12-24T01:52:36.252Z,0
2022-12-24T01:53:16.805Z,0
2022-12-24T01:55:50.216Z,0
2022-12-24T01:56:30.722Z,0
2022-12-24T01:57:11.274Z,0
2022-12-24T01:57:52.464Z,0
2022-12-24T01:58:33.068Z,0
2022-12-24T01:59:13.596Z,0
2022-12-24T01:59:54.988Z,0
2022-12-24T02:06:40.268Z,0
2022-12-24T02:07:20.814Z,0
2022-12-24T02:08:01.322Z,0
2022-12-24T02:08:41.852Z,0
2022-12-24T02:09:22.385Z,0
2022-12-24T02:10:02.898Z,0
2022-12-24T02:10:43.967Z,0
2022-12-24T02:11:24.513Z,0
2022-12-24T02:12:05.037Z,0
2022-12-24T02:17:30.001Z,0
2022-12-24T02:18:10.519Z,0
2022-12-24T02:18:51.056Z,0
2022-12-24T02:19:31.601Z,0
2022-12-24T02:20:12.155Z,0
2022-12-24T02:20:52.670Z,0
2022-12-24T02:21:33.211Z,0
2022-12-24T02:22:13.729Z,0
2022-12-24T02:22:54.241Z,0
2022-12-24T02:23:34.764Z,0
2022-12-24T02:29:40.094Z,0
2022-12-24T02:30:20.669Z,0
2022-12-24T02:31:01.214Z,0
2022-12-24T02:31:41.794Z,0
2022-12-24T02:32:22.327Z,0
2022-12-24T02:33:02.845Z,0
2022-12-24T02:33:43.360Z,0
2022-12-24T02:34:24.742Z,0
2022-12-24T02:35:05.249Z,0
2022-12-24T02:40:25.859Z,0
2022-12-24T02:41:06.376Z,0
2022-12-24T02:41:46.926Z,0
2022-12-24T02:42:27.476Z,0
2022-12-24T02:43:08.005Z,0
2022-12-24T02:43:48.542Z,0
2022-12-24T02:44:29.082Z,0
2022-12-24T02:45:09.612Z,0
2022-12-24T02:45:53.770Z,0
2022-12-24T02:46:30.696Z,0
2022-12-24T02:52:35.575Z,0
2022-12-24T02:54:49.713Z,0
2022-12-24T02:55:30.227Z,0
2022-12-24T02:56:10.741Z,0
2022-12-24T02:56:51.296Z,0
2022-12-24T02:57:31.863Z,0
2022-12-24T02:58:12.386Z,0
2022-12-24T02:58:52.929Z,0
2022-12-24T03:01:07.648Z,0
2022-12-24T03:01:48.242Z,0
2022-12-24T03:02:28.735Z,0
2022-12-24T03:03:09.202Z,0
2022-12-24T03:03:49.731Z,0
2022-12-24T03:04:30.255Z,0
2022-12-24T03:05:10.834Z,0
2022-12-24T03:05:51.356Z,0
2022-12-24T03:06:31.895Z,0
2022-12-24T03:07:12.467Z,0
2022-12-24T03:13:18.077Z,0
2022-12-24T03:13:58.573Z,0
2022-12-24T03:14:39.081Z,0
2022-12-24T03:16:52.171Z,0
2022-12-24T03:17:32.640Z,0
2022-12-24T03:18:13.226Z,0
2022-12-24T03:18:53.729Z,0
2022-12-24T03:19:34.268Z,0
2022-12-24T03:20:14.834Z,0
2022-12-24T03:20:55.365Z,0
2022-12-24T03:21:36.020Z,0
2022-12-24T03:22:16.533Z,0
2022-12-24T03:22:57.044Z,0
2022-12-24T03:29:02.448Z,0
2022-12-24T03:29:42.901Z,0
2022-12-24T03:30:23.420Z,0
2022-12-24T03:31:03.992Z,0
2022-12-24T03:31:44.593Z,0
2022-12-24T03:32:25.107Z,0
2022-12-24T03:33:05.624Z,0
2022-12-24T03:33:46.175Z,0
2022-12-24T03:34:26.740Z,0
2022-12-24T03:42:29.612Z,0
2022-12-24T03:43:10.256Z,0
2022-12-24T03:43:50.734Z,0
2022-12-24T03:44:31.378Z,0
2022-12-24T03:45:11.881Z,0
2022-12-24T03:45:52.507Z,0
2022-12-24T03:46:32.885Z,0
2022-12-24T03:47:13.397Z,0
2022-12-24T03:47:53.927Z,0
2022-12-24T03:50:07.023Z,0
2022-12-24T03:50:47.520Z,0
2022-12-24T03:51:28.041Z,0
2022-12-24T03:52:08.568Z,0
2022-12-24T03:52:49.075Z,0
2022-12-24T03:53:29.602Z,0
2022-12-24T03:54:10.144Z,0
2022-12-24T03:54:50.679Z,0
2022-12-24T03:55:31.281Z,0
2022-12-24T03:56:12.496Z,0
2022-12-24T04:01:36.913Z,0
2022-12-24T04:02:17.666Z,0
2022-12-24T04:02:57.931Z,0
2022-12-24T04:03:38.389Z,0
2022-12-24T04:04:18.933Z,0
2022-12-24T04:04:59.483Z,0
2022-12-24T04:05:40.005Z,0
2022-12-24T04:06:20.558Z,0
2022-12-24T04:07:01.194Z,0
2022-12-24T04:07:41.679Z,0
2022-12-24T04:14:27.100Z,0
2022-12-24T04:16:40.680Z,0
2022-12-24T04:17:21.187Z,0
2022-12-24T04:18:01.760Z,0
2022-12-24T04:18:42.275Z,0
2022-12-24T04:19:24.566Z,0
2022-12-24T04:20:05.096Z,0
2022-12-24T04:20:45.606Z,0
2022-12-24T04:26:50.906Z,0
2022-12-24T04:27:31.434Z,0
2022-12-24T04:29:45.061Z,0
2022-12-24T04:30:25.556Z,0
2022-12-24T04:31:06.124Z,0
2022-12-24T04:31:46.691Z,0
2022-12-24T04:32:27.148Z,0
2022-12-24T04:33:07.684Z,0
2022-12-24T04:33:48.213Z,0
2022-12-24T04:36:02.147Z,0
2022-12-24T04:36:42.660Z,0
2022-12-24T04:37:23.174Z,0
2022-12-24T04:38:03.720Z,0
2022-12-24T04:38:44.245Z,0
2022-12-24T04:39:24.767Z,0
2022-12-24T04:40:05.280Z,0
2022-12-24T04:40:45.822Z,0
2022-12-24T04:42:59.371Z,0
2022-12-24T04:43:39.891Z,0
2022-12-24T04:44:20.408Z,0
2022-12-24T04:45:00.961Z,0
2022-12-24T04:45:41.499Z,0
2022-12-24T04:46:22.108Z,0
2022-12-24T04:47:02.504Z,0
2022-12-24T04:47:43.041Z,0
2022-12-24T04:48:23.575Z,0
2022-12-24T04:49:04.091Z,0
2022-12-24T04:55:49.331Z,0
2022-12-24T04:56:30.547Z,0
2022-12-24T04:57:11.059Z,0
2022-12-24T04:57:53.177Z,0
2022-12-24T04:58:32.112Z,0
2022-12-24T04:59:12.612Z,0
2022-12-24T04:59:53.215Z,0
2022-12-24T05:00:34.404Z,0
2022-12-24T05:04:36.241Z,0
2022-12-24T05:05:16.799Z,0
2022-12-24T05:06:01.367Z,0
2022-12-24T05:06:37.905Z,0
2022-12-24T05:07:18.463Z,0
2022-12-24T05:07:59.013Z,0
2022-12-24T05:08:39.572Z,0
2022-12-24T05:09:20.103Z,0
2022-12-24T05:11:33.505Z,0
2022-12-24T05:12:14.831Z,0
2022-12-24T05:12:55.397Z,0
2022-12-24T05:13:44.292Z,0
2022-12-24T05:15:54.914Z,0
2022-12-24T05:16:35.493Z,0
2022-12-24T05:17:16.048Z,0
2022-12-24T05:17:57.022Z,0
2022-12-24T05:18:37.561Z,0
2022-12-24T05:19:18.145Z,0
2022-12-24T05:19:58.684Z,0
2022-12-24T05:20:39.212Z,0
2022-12-24T05:21:20.598Z,0
2022-12-24T05:26:44.904Z,0
2022-12-24T05:27:25.436Z,0
2022-12-24T05:28:06.538Z,0
2022-12-24T05:28:47.066Z,0
2022-12-24T05:31:00.255Z,0
2022-12-24T05:31:40.725Z,0
2022-12-24T05:32:21.306Z,0
2022-12-24T05:33:01.862Z,0
2022-12-24T05:33:42.407Z,0
2022-12-24T05:34:22.999Z,0
2022-12-24T05:35:03.490Z,0
2022-12-24T05:37:16.737Z,0
2022-12-24T05:37:57.256Z,0
2022-12-24T05:38:37.930Z,0
2022-12-24T05:39:18.482Z,0
2022-12-24T05:41:36.681Z,0
2022-12-24T05:42:17.211Z,0
2022-12-24T05:42:57.737Z,0
2022-12-24T05:43:38.341Z,0
2022-12-24T05:44:18.871Z,0
2022-12-24T05:44:59.362Z,0
2022-12-24T05:45:39.914Z,0
2022-12-24T05:46:20.544Z,0
2022-12-24T05:47:00.970Z,0
2022-12-24T05:47:43.560Z,0
2022-12-24T05:53:06.395Z,0
2022-12-24T05:53:47.850Z,0
2022-12-24T05:54:28.366Z,0
2022-12-24T05:55:08.928Z,0
2022-12-24T05:55:49.464Z,0
2022-12-24T05:56:29.974Z,0
2022-12-24T05:57:10.510Z,0
2022-12-24T05:57:51.796Z,0
2022-12-24T06:03:17.169Z,0
2022-12-24T06:03:57.938Z,0
2022-12-24T06:04:38.292Z,0
2022-12-24T06:05:18.873Z,0
2022-12-24T06:05:59.398Z,0
2022-12-24T06:06:40.735Z,0
2022-12-24T06:07:21.240Z,0
2022-12-24T06:08:01.774Z,0
2022-12-24T06:14:06.592Z,0
2022-12-24T06:14:47.936Z,0
2022-12-24T06:15:28.441Z,0
2022-12-24T06:16:09.066Z,0
2022-12-24T06:16:49.534Z,0
2022-12-24T06:17:30.043Z,0
2022-12-24T06:18:10.588Z,0
2022-12-24T06:18:51.068Z,0
2022-12-24T06:19:31.626Z,0
2022-12-24T06:24:56.779Z,0
2022-12-24T06:25:37.333Z,0
2022-12-24T06:26:17.926Z,0
2022-12-24T06:28:46.159Z,0
2022-12-24T06:29:27.494Z,0
2022-12-24T06:30:07.920Z,0
2022-12-24T06:30:48.494Z,0
2022-12-24T06:32:46.409Z,0
2022-12-24T06:33:26.935Z,0
2022-12-24T06:34:07.484Z,0
2022-12-24T06:34:48.773Z,0
2022-12-24T06:35:29.295Z,0
2022-12-24T06:36:15.107Z,0
2022-12-24T06:36:50.327Z,0
2022-12-24T06:37:30.855Z,0
2022-12-24T06:38:11.405Z,0
2022-12-24T06:44:16.281Z,0
2022-12-24T06:44:58.824Z,0
2022-12-24T06:47:09.902Z,0
2022-12-24T06:47:50.435Z,4
2022-12-24T06:48:31.000Z,4
2022-12-24T06:49:11.489Z,4
2022-12-24T06:49:52.040Z,0
2022-12-24T06:52:05.272Z,8
2022-12-24T06:52:45.839Z,4
2022-12-24T06:53:27.106Z,8
2022-12-24T06:54:07.630Z,4
2022-12-24T06:56:20.736Z,8
2022-12-24T06:57:01.195Z,12
2022-12-24T06:57:41.741Z,12
2022-12-24T06:58:22.257Z,16
2022-12-24T06:59:05.431Z,16
2022-12-24T06:59:43.309Z,20
2022-12-24T07:02:01.132Z,28
2022-12-24T07:02:42.372Z,28
2022-12-24T07:03:24.748Z,28
2022-12-24T07:04:06.829Z,32
2022-12-24T07:04:49.067Z,32
2022-12-24T07:07:19.752Z,48
2022-12-24T07:08:00.301Z,48
2022-12-24T07:08:40.840Z,56
2022-12-24T07:09:21.393Z,56
2022-12-24T07:10:01.874Z,60
2022-12-24T07:10:42.420Z,68
2022-12-24T07:11:22.939Z,72
2022-12-24T07:12:03.451Z,80
2022-12-24T07:12:43.952Z,88
2022-12-24T07:13:24.504Z,92
2022-12-24T07:17:29.500Z,124
2022-12-24T07:18:09.999Z,132
2022-12-24T07:18:50.568Z,136
2022-12-24T07:19:31.462Z,144
2022-12-24T07:20:11.909Z,148
2022-12-24T07:20:52.430Z,156
2022-12-24T07:21:32.941Z,160
2022-12-24T07:22:15.554Z,168
2022-12-24T07:22:53.977Z,176
2022-12-24T07:23:34.515Z,180
2022-12-24T07:30:19.904Z,112
2022-12-24T07:31:00.525Z,116
2022-12-24T07:31:41.014Z,124
2022-12-24T07:32:21.457Z,136
2022-12-24T07:33:01.963Z,156
2022-12-24T07:33:42.487Z,184
2022-12-24T07:34:23.071Z,216
2022-12-24T07:35:03.580Z,244
2022-12-24T07:35:44.126Z,276
2022-12-24T07:36:24.665Z,304
2022-12-24T07:41:49.681Z,504
2022-12-24T07:42:30.188Z,560
2022-12-24T07:43:10.712Z,624
2022-12-24T07:43:51.258Z,692
2022-12-24T07:44:31.803Z,740
2022-12-24T07:45:12.348Z,800
2022-12-24T07:45:52.853Z,824
2022-12-24T07:46:33.404Z,840
2022-12-24T07:47:13.948Z,876
2022-12-24T07:47:54.439Z,932
2022-12-24T07:53:47.622Z,1188
2022-12-24T07:54:28.151Z,1224
2022-12-24T07:55:08.702Z,1252
2022-12-24T07:55:49.242Z,1296
2022-12-24T07:56:29.783Z,1368
2022-12-24T07:57:10.345Z,1448
2022-12-24T07:59:08.310Z,1532
2022-12-24T07:59:48.819Z,1532
2022-12-24T08:00:30.075Z,1548
2022-12-24T08:01:10.662Z,1572
2022-12-24T08:03:23.776Z,1796
2022-12-24T08:04:04.293Z,1824
2022-12-24T08:04:44.775Z,1844
2022-12-24T08:05:25.352Z,1872
2022-12-24T08:06:05.995Z,1904
2022-12-24T08:06:46.549Z,1924
2022-12-24T08:07:27.060Z,1956
2022-12-24T08:08:07.806Z,1976
2022-12-24T08:08:48.453Z,1968
2022-12-24T08:13:33.834Z,2136
2022-12-24T08:14:14.457Z,2204
2022-12-24T08:14:55.209Z,2268
2022-12-24T08:15:35.766Z,2312
2022-12-24T08:16:16.288Z,2328
2022-12-24T08:16:57.700Z,2340
2022-12-24T08:17:38.286Z,2368
2022-12-24T08:20:19.554Z,2444
2022-12-24T08:21:02.931Z,2460
2022-12-24T08:21:45.432Z,2472
2022-12-24T08:22:29.466Z,2444
2022-12-24T08:24:42.725Z,2460
2022-12-24T08:25:23.269Z,2524
2022-12-24T08:26:03.787Z,2600
2022-12-24T08:26:44.298Z,2676
2022-12-24T08:27:24.813Z,2740
2022-12-24T08:28:05.346Z,2784
2022-12-24T08:28:45.871Z,2796
2022-12-24T08:29:26.389Z,2772
2022-12-24T08:30:06.958Z,2716
2022-12-24T08:30:47.472Z,2640
2022-12-24T08:34:52.619Z,2036
2022-12-24T08:35:33.141Z,1844
2022-12-24T08:37:47.457Z,1908
2022-12-24T08:38:28.038Z,2052
2022-12-24T08:39:08.645Z,2204
2022-12-24T08:39:49.166Z,2352
2022-12-24T08:40:29.701Z,2492
2022-12-24T08:41:10.313Z,2652
2022-12-24T08:41:50.904Z,2772
2022-12-24T08:42:31.586Z,2876
2022-12-24T08:43:12.163Z,3052
2022-12-24T08:48:33.080Z,2456
2022-12-24T08:49:13.626Z,2556
2022-12-24T08:49:54.175Z,2716
2022-12-24T08:50:34.763Z,2876
2022-12-24T08:51:15.324Z,3060
2022-12-24T08:51:55.834Z,3288
2022-12-24T08:52:36.437Z,3524
2022-12-24T08:53:17.987Z,3772
2022-12-24T08:56:42.766Z,4356
2022-12-24T08:57:23.309Z,4280
2022-12-24T08:59:36.384Z,3740
2022-12-24T09:00:16.935Z,3568
2022-12-24T09:00:57.517Z,3448
2022-12-24T09:01:38.115Z,3392
2022-12-24T09:02:18.658Z,3456
2022-12-24T09:02:59.211Z,3616
2022-12-24T09:03:40.328Z,3736
2022-12-24T09:04:20.804Z,4004
2022-12-24T09:05:01.325Z,4440
2022-12-24T09:10:26.442Z,6076
2022-12-24T09:11:06.957Z,5824
2022-12-24T09:11:48.364Z,5824
2022-12-24T09:12:28.897Z,5796
2022-12-24T09:13:09.434Z,5340
2022-12-24T09:13:49.962Z,4512
2022-12-24T09:14:30.497Z,3808
2022-12-24T09:15:11.026Z,3272
2022-12-24T09:21:56.259Z,4912
2022-12-24T09:22:37.466Z,5292
2022-12-24T09:24:52.146Z,4628
2022-12-24T09:25:32.701Z,4052
2022-12-24T09:26:13.321Z,3564
2022-12-24T09:26:57.642Z,3384
2022-12-24T09:29:07.011Z,2976
2022-12-24T09:29:49.505Z,2844
2022-12-24T09:30:30.018Z,2736
2022-12-24T09:31:10.575Z,2860
2022-12-24T09:33:10.192Z,3548
2022-12-24T09:33:50.864Z,3692
2022-12-24T09:34:31.419Z,3804
2022-12-24T09:35:12.005Z,3896
2022-12-24T09:35:52.781Z,3808
2022-12-24T09:36:33.522Z,3576
2022-12-24T09:37:14.071Z,3340
2022-12-24T09:37:54.873Z,3224
2022-12-24T09:44:01.217Z,3688
2022-12-24T09:44:42.231Z,3928
2022-12-24T09:45:23.647Z,3644
2022-12-24T09:47:36.720Z,3140
2022-12-24T09:48:17.271Z,3208
2022-12-24T09:48:57.794Z,3372
2022-12-24T09:49:38.320Z,3528
2022-12-24T09:50:18.824Z,3628
2022-12-24T09:50:59.333Z,3516
2022-12-24T09:51:39.857Z,3972
2022-12-24T09:52:20.393Z,4768
2022-12-24T09:53:00.926Z,5136
2022-12-24T09:53:41.421Z,5056
2022-12-24T09:57:46.409Z,2324
2022-12-24T09:58:26.914Z,2112
2022-12-24T09:59:07.475Z,1896
2022-12-24T09:59:48.959Z,1592
2022-12-24T10:00:29.508Z,1388
2022-12-24T10:01:10.161Z,1344
2022-12-24T10:01:50.763Z,1472
2022-12-24T10:02:31.277Z,1780
2022-12-24T10:03:11.687Z,2280
2022-12-24T10:07:11.165Z,4328
2022-12-24T10:07:51.677Z,4416
2022-12-24T10:08:32.207Z,4568
2022-12-24T10:09:12.733Z,4792
2022-12-24T10:09:53.281Z,5024
2022-12-24T10:10:33.796Z,5244
2022-12-24T10:11:14.308Z,5348
2022-12-24T10:11:54.843Z,5216
2022-12-24T10:12:35.369Z,5156
2022-12-24T10:13:15.867Z,5256
2022-12-24T10:16:31.391Z,3976
2022-12-24T10:17:11.964Z,3664
2022-12-24T10:17:52.402Z,3596
2022-12-24T10:18:33.470Z,3868
2022-12-24T10:21:06.857Z,3496
2022-12-24T10:21:48.042Z,3344
2022-12-24T10:22:29.529Z,3348
2022-12-24T10:23:11.530Z,3364
2022-12-24T10:25:25.055Z,3048
2022-12-24T10:26:06.619Z,2872
2022-12-24T10:26:47.105Z,2644
2022-12-24T10:27:27.647Z,2748
2022-12-24T10:29:27.044Z,2972
2022-12-24T10:30:11.825Z,2464
2022-12-24T10:30:48.129Z,2332
2022-12-24T10:31:28.701Z,2940
2022-12-24T10:33:42.355Z,4744
2022-12-24T10:34:22.926Z,5212
2022-12-24T10:35:03.440Z,5800
2022-12-24T10:35:43.962Z,5976
2022-12-24T10:37:58.573Z,3476
2022-12-24T10:38:39.158Z,3880
2022-12-24T10:39:19.672Z,4704
2022-12-24T10:40:00.702Z,5476
2022-12-24T10:40:41.261Z,6580
2022-12-24T10:41:21.798Z,7664
2022-12-24T10:43:55.826Z,6060
2022-12-24T10:44:37.882Z,5936
2022-12-24T10:45:18.365Z,6168
2022-12-24T10:46:00.566Z,6664
2022-12-24T10:48:15.514Z,5876
2022-12-24T10:48:56.022Z,5196
2022-12-24T10:49:36.535Z,4760
2022-12-24T10:50:17.942Z,4472
2022-12-24T10:52:36.665Z,5068
2022-12-24T10:53:17.359Z,5124
2022-12-24T10:53:57.930Z,5176
2022-12-24T10:54:38.572Z,5472
2022-12-24T10:55:19.175Z,6240
2022-12-24T10:55:59.842Z,7144
2022-12-24T10:56:40.410Z,7748
2022-12-24T10:57:20.877Z,7492
2022-12-24T10:59:34.721Z,4656
2022-12-24T11:00:15.947Z,4508
2022-12-24T11:00:56.502Z,4404
2022-12-24T11:01:37.133Z,4532
2022-12-24T11:02:17.627Z,5120
2022-12-24T11:02:58.122Z,5440
2022-12-24T11:03:38.580Z,6432
2022-12-24T11:04:19.066Z,8124
2022-12-24T11:04:59.562Z,8260
2022-12-24T11:09:04.621Z,10212
2022-12-24T11:09:45.689Z,10092
2022-12-24T11:10:26.266Z,10588
2022-12-24T11:11:06.749Z,8704
2022-12-24T11:11:47.315Z,7088
2022-12-24T11:12:28.460Z,6136
2022-12-24T11:13:36.690Z,4672
2022-12-24T11:13:49.487Z,4432
2022-12-24T11:20:34.953Z,6876
2022-12-24T11:21:16.376Z,7196
2022-12-24T11:21:57.698Z,7492
2022-12-24T11:22:38.220Z,7404
2022-12-24T11:23:18.748Z,6948
2022-12-24T11:23:59.260Z,6708
2022-12-24T11:24:42.625Z,6560
2022-12-24T11:30:45.240Z,7868
2022-12-24T11:31:25.835Z,7676
2022-12-24T11:32:06.879Z,7524
2022-12-24T11:32:47.399Z,7388
2022-12-24T11:33:27.950Z,7456
2022-12-24T11:34:08.484Z,7692
2022-12-24T11:34:49.043Z,8272
2022-12-24T11:35:29.545Z,8940
2022-12-24T11:41:30.735Z,5428
2022-12-24T11:42:11.268Z,4656
2022-12-24T11:42:51.770Z,4288
2022-12-24T11:43:32.306Z,3820
2022-12-24T11:44:12.861Z,3832
2022-12-24T11:44:53.383Z,3612
2022-12-24T11:47:27.645Z,3276
2022-12-24T11:48:08.227Z,3344
2022-12-24T11:48:48.843Z,3180
2022-12-24T11:49:29.434Z,3192
2022-12-24T11:51:42.836Z,2704
2022-12-24T11:52:23.378Z,2796
2022-12-24T11:53:04.463Z,2908
2022-12-24T11:53:45.008Z,2972
2022-12-24T11:55:58.268Z,4032
2022-12-24T11:56:38.821Z,4904
2022-12-24T11:57:19.332Z,5496
2022-12-24T11:57:59.922Z,4992
2022-12-24T11:58:40.380Z,4300
2022-12-24T11:59:21.667Z,3540
2022-12-24T12:00:02.190Z,3840
2022-12-24T12:00:42.702Z,4320
2022-12-24T12:01:24.037Z,4548
2022-12-24T12:06:44.301Z,6072
2022-12-24T12:07:25.698Z,7012
2022-12-24T12:08:06.233Z,6500
2022-12-24T12:08:46.750Z,4800
2022-12-24T12:09:27.268Z,3944
2022-12-24T12:10:07.810Z,3532
2022-12-24T12:10:48.348Z,3456
2022-12-24T12:11:28.891Z,3532
2022-12-24T12:16:54.318Z,6012
2022-12-24T12:17:34.841Z,6568
2022-12-24T12:18:15.331Z,6892
2022-12-24T12:18:55.881Z,7108
2022-12-24T12:19:36.433Z,7320
2022-12-24T12:20:16.969Z,7396
2022-12-24T12:20:57.492Z,7372
2022-12-24T12:21:38.046Z,7348
2022-12-24T12:22:18.619Z,6916
2022-12-24T12:22:59.198Z,7068
2022-12-24T12:25:04.439Z,7564
2022-12-24T12:25:44.981Z,7272
2022-12-24T12:26:25.528Z,7040
2022-12-24T12:27:06.606Z,7092
2022-12-24T12:29:21.178Z,6036
2022-12-24T12:30:01.754Z,5968
2022-12-24T12:30:42.288Z,5652
2022-12-24T12:31:22.876Z,5752
2022-12-24T12:32:03.375Z,5412
2022-12-24T12:32:43.877Z,5444
2022-12-24T12:33:24.576Z,5064
2022-12-24T12:34:05.016Z,4752
2022-12-24T12:34:46.599Z,4696
2022-12-24T12:40:51.331Z,3876
2022-12-24T12:41:31.889Z,4564
2022-12-24T12:42:12.405Z,3932
2022-12-24T12:42:52.938Z,4692
2022-12-24T12:43:33.457Z,4832
2022-12-24T12:44:13.984Z,4388
2022-12-24T12:44:54.581Z,4124
2022-12-24T12:45:35.035Z,4340
2022-12-24T12:46:15.654Z,4544
2022-12-24T12:46:56.153Z,4772
2022-12-24T12:52:21.060Z,4472
2022-12-24T12:53:01.557Z,4432
2022-12-24T12:53:42.695Z,4568
2022-12-24T12:54:23.204Z,4836
2022-12-24T12:55:03.720Z,5072
2022-12-24T12:55:45.155Z,5168
2022-12-24T12:56:25.676Z,5268
2022-12-24T12:57:06.210Z,5188
2022-12-24T13:02:31.242Z,5116
2022-12-24T13:04:44.141Z,4464
2022-12-24T13:05:24.672Z,4172
2022-12-24T13:06:05.205Z,4096
2022-12-24T13:06:45.747Z,4132
2022-12-24T13:07:26.304Z,4136
2022-12-24T13:08:06.835Z,4124
2022-12-24T13:08:47.403Z,4172
2022-12-24T13:09:27.952Z,4244
2022-12-24T13:10:09.101Z,4304
2022-12-24T13:15:35.314Z,4748
2022-12-24T13:16:15.966Z,4700
2022-12-24T13:18:28.660Z,4772
2022-12-24T13:19:09.255Z,4388
2022-12-24T13:19:49.821Z,4168
2022-12-24T13:20:31.316Z,4184
2022-12-24T13:21:11.891Z,4360
2022-12-24T13:21:52.436Z,4532
2022-12-24T13:22:33.046Z,4100
2022-12-24T13:23:13.560Z,3352
2022-12-24T13:29:18.702Z,3240
2022-12-24T13:30:05.142Z,3048
2022-12-24T13:30:40.368Z,2832
2022-12-24T13:31:21.725Z,2668
2022-12-24T13:32:02.226Z,2472
2022-12-24T13:32:42.695Z,2332
2022-12-24T13:33:23.212Z,2276
2022-12-24T13:39:29.019Z,2368
2022-12-24T13:40:09.652Z,2308
2022-12-24T13:40:50.064Z,2264
2022-12-24T13:41:36.376Z,2240
2022-12-24T13:42:12.595Z,2228
2022-12-24T13:42:53.105Z,2240
2022-12-24T13:43:34.165Z,2200
2022-12-24T13:47:33.944Z,2064
2022-12-24T13:48:14.424Z,2040
2022-12-24T13:48:54.988Z,2032
2022-12-24T13:49:36.121Z,2036
2022-12-24T13:50:16.691Z,2048
2022-12-24T13:52:29.915Z,2176
2022-12-24T13:53:10.465Z,2224
2022-12-24T13:53:50.976Z,2228
2022-12-24T13:54:31.531Z,2220
2022-12-24T13:55:12.039Z,2248
2022-12-24T13:55:52.615Z,2280
2022-12-24T13:56:33.133Z,2324
2022-12-24T13:57:13.672Z,2384
2022-12-24T13:57:54.226Z,2416
2022-12-24T13:58:34.775Z,2412
2022-12-24T14:01:59.785Z,2132
2022-12-24T14:02:40.361Z,2060
2022-12-24T14:03:20.751Z,2016
2022-12-24T14:04:01.193Z,2012
2022-12-24T14:04:42.413Z,2048
2022-12-24T14:05:22.943Z,2044
2022-12-24T14:06:03.545Z,2008
2022-12-24T14:06:45.747Z,1952
2022-12-24T14:12:16.337Z,2200
2022-12-24T14:14:22.779Z,2148
2022-12-24T14:15:03.285Z,2104
2022-12-24T14:15:44.650Z,2048
2022-12-24T14:16:25.192Z,2024
2022-12-24T14:18:53.163Z,1940
2022-12-24T14:19:37.487Z,1900
2022-12-24T14:20:15.105Z,1888
2022-12-24T14:20:56.542Z,1884
2022-12-24T14:21:37.605Z,1876
2022-12-24T14:22:18.712Z,1860
2022-12-24T14:28:20.430Z,1932
2022-12-24T14:29:00.973Z,1940
2022-12-24T14:29:42.378Z,1952
2022-12-24T14:30:22.910Z,1948
2022-12-24T14:31:03.437Z,1952
2022-12-24T14:31:44.007Z,1956
2022-12-24T14:32:24.478Z,1960
2022-12-24T14:33:04.999Z,1952
2022-12-24T14:39:50.932Z,1604
2022-12-24T14:42:04.544Z,1684
2022-12-24T14:42:45.087Z,1660
2022-12-24T14:43:25.562Z,1612
2022-12-24T14:44:06.098Z,1552
2022-12-24T14:44:47.158Z,1520
2022-12-24T14:45:27.709Z,1504
2022-12-24T14:46:08.267Z,1480
2022-12-24T14:48:25.103Z,1332
2022-12-24T14:49:06.481Z,1304
2022-12-24T14:49:47.769Z,1300
2022-12-24T14:50:28.287Z,1304
2022-12-24T14:53:22.368Z,1280
2022-12-24T14:54:02.894Z,1272
2022-12-24T14:54:43.415Z,1260
2022-12-24T14:55:23.964Z,1236
2022-12-24T14:57:37.710Z,1104
2022-12-24T14:58:18.221Z,1076
2022-12-24T14:58:58.727Z,1052
2022-12-24T14:59:39.248Z,1024
2022-12-24T15:00:19.792Z,996
2022-12-24T15:01:00.458Z,968
2022-12-24T15:01:40.916Z,940
2022-12-24T15:02:22.263Z,912
2022-12-24T15:03:02.776Z,884
2022-12-24T15:09:03.996Z,616
2022-12-24T15:09:44.534Z,592
2022-12-24T15:10:25.049Z,572
2022-12-24T15:11:05.584Z,544
2022-12-24T15:13:36.597Z,444
2022-12-24T15:14:17.293Z,420
2022-12-24T15:14:57.833Z,404
2022-12-24T15:15:39.021Z,380
2022-12-24T15:18:14.084Z,296
2022-12-24T15:18:54.612Z,272
2022-12-24T15:19:35.116Z,248
2022-12-24T15:20:15.685Z,228
2022-12-24T15:21:01.966Z,212
2022-12-24T15:21:36.759Z,188
2022-12-24T15:22:17.301Z,172
2022-12-24T15:22:58.634Z,164
2022-12-24T15:23:39.146Z,152
2022-12-24T15:29:43.956Z,96
2022-12-24T15:30:24.642Z,92
2022-12-24T15:32:38.146Z,80
2022-12-24T15:33:18.654Z,72
2022-12-24T15:33:59.411Z,68
2022-12-24T15:34:39.747Z,64
2022-12-24T15:36:52.815Z,52
2022-12-24T15:37:33.298Z,48
2022-12-24T15:38:18.653Z,48
2022-12-24T15:38:54.386Z,44
2022-12-24T15:39:34.928Z,40
2022-12-24T15:40:15.480Z,40
2022-12-24T15:40:56.049Z,36
2022-12-24T15:41:36.632Z,36
2022-12-24T15:42:17.157Z,32
2022-12-24T15:42:57.683Z,32
2022-12-24T15:49:02.676Z,16
2022-12-24T15:49:43.192Z,12
2022-12-24T15:51:57.685Z,8
2022-12-24T15:52:38.301Z,8
2022-12-24T15:53:21.925Z,8
2022-12-24T15:54:00.227Z,8
2022-12-24T15:56:14.947Z,4
2022-12-24T15:56:56.260Z,4
2022-12-24T15:57:37.454Z,4
2022-12-24T15:58:18.804Z,4
2022-12-24T16:00:16.493Z,4
2022-12-24T16:00:57.016Z,0
2022-12-24T16:01:37.654Z,0
2022-12-24T16:02:18.219Z,0
2022-12-24T16:04:31.254Z,4
2022-12-24T16:05:11.786Z,4
2022-12-24T16:05:53.848Z,0
2022-12-24T16:06:34.391Z,0
2022-12-24T16:08:51.467Z,0
2022-12-24T16:09:32.948Z,0
2022-12-24T16:10:13.450Z,0
2022-12-24T16:10:55.444Z,0
2022-12-24T16:12:53.383Z,0
2022-12-24T16:13:33.895Z,0